Terminal Aerodrome Forecast
Issued by NWS

Home | Current Version | Previous Version | Text Only | Print | Product List | Glossary On
Versions: 1 2 3 4 5 6 7 8 9 10 11 12 13 14
393
FTUS45 KABQ 110540
TAFSAF
TAF
KSAF 110540Z 1106/1206 33006KT P6SM SCT150 BKN200
     FM111600 26014G23KT P6SM FEW025 SCT035
     FM112200 33016KT P6SM SCT035
     FM120100 33008KT P6SM FEW035=

USA.gov is the U.S. government's official web portal to all federal, state and local government web resources and services.